Time;durP1;ratioP1;P1;durP2;ratioP2;P2;SDS_P1;SDS_P2;PMS_P1;PMS_P2;Temp;Humidity;BMP_temperature;BMP_pressure;BME280_temperature;BME280_humidity;BME280_pressure;Samples;Min_cycle;Max_cycle;Signal;HPM_P1;HPM_P2
2023/08/01 00:00:07;;;;;;;16.80;13.23;;;16.60;99.90;;;;;;5043907;28;20120;-76
2023/08/01 00:02:36;;;;;;;25.25;15.65;;;16.60;99.90;;;;;;5058975;28;20071;-76
2023/08/01 00:05:02;;;;;;;14.90;11.35;;;16.60;99.90;;;;;;5057059;28;20072;-75
2023/08/01 00:07:28;;;;;;;16.98;11.90;;;16.60;99.90;;;;;;5043267;28;20571;-75
2023/08/01 00:09:54;;;;;;;12.63;10.30;;;16.60;99.90;;;;;;5059958;28;20056;-74
2023/08/01 00:12:20;;;;;;;15.30;10.38;;;16.50;99.90;;;;;;5063675;28;20048;-75
2023/08/01 00:14:45;;;;;;;12.32;9.60;;;16.60;99.90;;;;;;5057812;28;20048;-74
2023/08/01 00:17:11;;;;;;;14.00;9.50;;;16.50;99.90;;;;;;5045640;28;20700;-75
2023/08/01 00:19:40;;;;;;;14.15;10.65;;;16.50;99.90;;;;;;5043612;28;20049;-75
2023/08/01 00:22:06;;;;;;;15.57;10.32;;;16.50;99.90;;;;;;5043615;28;20046;-76
2023/08/01 00:24:31;;;;;;;18.73;9.68;;;16.50;99.90;;;;;;5057122;28;20053;-75
2023/08/01 00:26:57;;;;;;;15.52;9.32;;;16.40;99.90;;;;;;5065930;28;20064;-75
2023/08/01 00:29:23;;;;;;;12.88;9.55;;;16.40;99.90;;;;;;5058873;28;20115;-75
2023/08/01 00:31:49;;;;;;;14.27;9.80;;;16.40;99.90;;;;;;5059214;28;20122;-75
2023/08/01 00:34:15;;;;;;;17.50;11.57;;;16.40;99.90;;;;;;5039562;28;20049;-76
2023/08/01 00:36:40;;;;;;;14.27;10.23;;;16.40;99.90;;;;;;5060453;28;20052;-75
2023/08/01 00:39:06;;;;;;;14.35;10.35;;;16.40;99.90;;;;;;5035431;28;20041;-75
2023/08/01 00:41:32;;;;;;;15.43;10.43;;;16.40;99.90;;;;;;5041305;28;20495;-75
2023/08/01 00:43:57;;;;;;;18.15;11.52;;;16.40;99.90;;;;;;5049957;28;20048;-76
2023/08/01 00:46:24;;;;;;;18.15;11.80;;;16.40;99.90;;;;;;5056349;28;20548;-75
2023/08/01 00:48:50;;;;;;;18.63;12.60;;;16.30;99.90;;;;;;5049011;28;20120;-75
2023/08/01 00:51:17;;;;;;;19.58;13.23;;;16.30;99.90;;;;;;5059621;28;20040;-75
2023/08/01 00:53:45;;;;;;;21.02;13.07;;;16.30;99.90;;;;;;5049411;28;20049;-75
2023/08/01 00:56:11;;;;;;;16.80;12.10;;;16.30;99.90;;;;;;5040006;28;20555;-75
2023/08/01 00:58:36;;;;;;;18.80;13.05;;;16.30;99.90;;;;;;5047603;28;20040;-75
2023/08/01 01:01:03;;;;;;;20.13;13.95;;;16.30;99.90;;;;;;5069084;28;20044;-76
2023/08/01 01:03:29;;;;;;;23.15;15.68;;;16.30;99.90;;;;;;5061277;28;20438;-76
2023/08/01 01:06:23;;;;;;;17.10;12.27;;;16.30;99.90;;;;;;5049028;28;20134;-76
2023/08/01 01:08:49;;;;;;;17.85;13.43;;;16.30;99.90;;;;;;5064595;28;20049;-76
2023/08/01 01:11:14;;;;;;;26.80;16.60;;;16.30;99.90;;;;;;5041521;28;20041;-75
2023/08/01 01:13:40;;;;;;;20.88;14.15;;;16.30;99.90;;;;;;5053459;28;20045;-76
2023/08/01 01:16:06;;;;;;;16.05;11.95;;;16.20;99.90;;;;;;5060312;28;20040;-75
2023/08/01 01:18:32;;;;;;;19.13;12.95;;;16.20;99.90;;;;;;5048362;28;20197;-75
2023/08/01 01:20:58;;;;;;;20.85;12.70;;;16.20;99.90;;;;;;5061784;28;20531;-76
2023/08/01 01:23:25;;;;;;;18.38;13.70;;;16.20;99.90;;;;;;5063643;28;20506;-75
2023/08/01 01:25:52;;;;;;;23.15;14.50;;;16.30;99.90;;;;;;5065323;28;20041;-76
2023/08/01 01:28:18;;;;;;;20.23;12.75;;;16.20;99.90;;;;;;5063015;28;20124;-76
2023/08/01 01:30:45;;;;;;;18.92;11.80;;;16.20;99.90;;;;;;5066971;28;20094;-75
2023/08/01 01:33:12;;;;;;;13.27;10.52;;;16.30;99.90;;;;;;5061986;28;20106;-75
2023/08/01 01:35:41;;;;;;;17.08;11.57;;;16.30;99.90;;;;;;5042564;28;20503;-75
2023/08/01 01:38:08;;;;;;;18.83;12.73;;;16.20;99.90;;;;;;5062560;28;20045;-76
2023/08/01 01:40:34;;;;;;;24.85;12.52;;;16.30;99.90;;;;;;5066448;28;21444;-76
2023/08/01 01:43:00;;;;;;;15.07;10.73;;;16.20;99.90;;;;;;5063330;28;20539;-76
2023/08/01 01:45:26;;;;;;;18.20;10.73;;;16.30;99.90;;;;;;5051392;28;20122;-76
2023/08/01 01:47:52;;;;;;;17.95;9.73;;;16.30;99.90;;;;;;5051796;28;20048;-71
2023/08/01 01:50:18;;;;;;;15.57;10.43;;;16.20;99.90;;;;;;5070627;28;21023;-71
2023/08/01 01:52:45;;;;;;;15.95;9.50;;;16.20;99.90;;;;;;5064052;28;20052;-72
2023/08/01 01:55:10;;;;;;;16.52;9.52;;;16.20;99.90;;;;;;5059832;28;20049;-72
2023/08/01 01:57:37;;;;;;;16.30;8.02;;;16.20;99.90;;;;;;5061387;28;20103;-72
2023/08/01 02:00:04;;;;;;;13.40;7.07;;;16.20;99.90;;;;;;5046922;28;20056;-72
2023/08/01 02:02:30;;;;;;;13.98;6.75;;;16.20;99.90;;;;;;5056394;28;20032;-72
2023/08/01 02:04:56;;;;;;;11.88;6.43;;;16.20;99.90;;;;;;5050692;28;20175;-72
2023/08/01 02:07:21;;;;;;;16.02;7.10;;;16.10;99.90;;;;;;5045780;28;20048;-72
2023/08/01 02:09:47;;;;;;;14.80;7.18;;;16.10;99.90;;;;;;5062722;28;20051;-76
2023/08/01 02:12:16;;;;;;;12.65;6.18;;;16.10;99.90;;;;;;5072497;28;20600;-76
2023/08/01 02:14:42;;;;;;;11.98;6.15;;;16.00;99.90;;;;;;5048732;28;20114;-76
2023/08/01 02:17:08;;;;;;;11.70;6.40;;;16.00;99.90;;;;;;5069996;28;20033;-76
2023/08/01 02:19:34;;;;;;;15.52;6.78;;;15.90;99.90;;;;;;5030832;28;20792;-75
2023/08/01 02:22:00;;;;;;;13.55;6.78;;;15.90;99.90;;;;;;5038283;28;20817;-75
2023/08/01 02:24:25;;;;;;;13.85;6.60;;;15.80;99.90;;;;;;5055428;28;20391;-75
2023/08/01 02:26:51;;;;;;;13.38;6.95;;;15.80;99.90;;;;;;5051710;28;20773;-75
2023/08/01 02:29:17;;;;;;;11.23;6.40;;;15.80;99.90;;;;;;5069698;28;20119;-75
2023/08/01 02:31:43;;;;;;;14.55;6.97;;;15.70;99.90;;;;;;5064097;28;20047;-75
2023/08/01 02:34:11;;;;;;;21.85;8.95;;;15.70;99.90;;;;;;5057668;28;20075;-75
2023/08/01 02:36:37;;;;;;;18.17;8.35;;;15.60;99.90;;;;;;5058636;28;20598;-76
2023/08/01 02:39:03;;;;;;;13.18;6.70;;;15.60;99.90;;;;;;5066081;28;20044;-75
2023/08/01 02:41:29;;;;;;;15.77;7.65;;;15.60;99.90;;;;;;5044344;28;20053;-75
2023/08/01 02:43:54;;;;;;;14.63;6.82;;;15.50;99.90;;;;;;5052023;28;20051;-76
2023/08/01 02:46:20;;;;;;;17.65;7.65;;;15.50;99.90;;;;;;5058429;28;20207;-75
2023/08/01 02:48:46;;;;;;;15.15;8.10;;;15.50;99.90;;;;;;5062701;28;20771;-75
2023/08/01 02:51:11;;;;;;;15.48;8.70;;;15.50;99.90;;;;;;5067126;28;20071;-76
2023/08/01 02:53:40;;;;;;;14.73;8.50;;;15.50;99.90;;;;;;5061541;28;20474;-76
2023/08/01 02:56:07;;;;;;;12.82;8.48;;;15.50;99.90;;;;;;5046641;28;20049;-75
2023/08/01 02:58:33;;;;;;;15.90;10.10;;;15.50;99.90;;;;;;5050563;28;20051;-76
2023/08/01 03:00:59;;;;;;;20.05;10.45;;;15.50;99.90;;;;;;5053260;28;20049;-76
2023/08/01 03:03:25;;;;;;;13.88;8.95;;;15.50;99.90;;;;;;5061661;28;20032;-75
2023/08/01 03:05:52;;;;;;;21.35;10.93;;;15.50;99.90;;;;;;5043989;28;20044;-75
2023/08/01 03:08:18;;;;;;;16.08;10.13;;;15.50;99.90;;;;;;5060250;28;20048;-76
2023/08/01 03:10:44;;;;;;;21.33;11.23;;;15.50;99.90;;;;;;5060691;28;20053;-76
2023/08/01 03:13:10;;;;;;;19.83;10.68;;;15.60;99.90;;;;;;5043595;28;20650;-75
2023/08/01 03:15:36;;;;;;;27.70;13.88;;;15.60;99.90;;;;;;5052769;28;20136;-76
2023/08/01 03:18:03;;;;;;;17.63;9.57;;;15.60;99.90;;;;;;5043440;28;20052;-76
2023/08/01 03:20:29;;;;;;;17.95;9.73;;;15.60;99.90;;;;;;5056429;28;20044;-76
2023/08/01 03:22:55;;;;;;;18.75;10.70;;;15.60;99.90;;;;;;5058571;28;20056;-76
2023/08/01 03:25:21;;;;;;;21.40;10.82;;;15.70;99.90;;;;;;5054418;28;20138;-74
2023/08/01 03:27:46;;;;;;;14.68;8.68;;;15.70;99.90;;;;;;5064107;28;20110;-75
2023/08/01 03:30:12;;;;;;;18.90;8.52;;;15.70;99.90;;;;;;5059536;28;20048;-74
2023/08/01 03:32:41;;;;;;;10.55;5.82;;;15.70;99.90;;;;;;5059830;28;21013;-75
2023/08/01 03:35:07;;;;;;;12.88;5.75;;;15.70;99.90;;;;;;5045154;28;20045;-76
2023/08/01 03:37:33;;;;;;;8.25;4.30;;;15.70;99.90;;;;;;5066921;28;20032;-75
2023/08/01 03:39:58;;;;;;;10.73;4.22;;;15.70;99.90;;;;;;5049301;28;20595;-75
2023/08/01 03:42:24;;;;;;;9.80;4.43;;;15.60;99.90;;;;;;5056691;28;20047;-75
2023/08/01 03:44:50;;;;;;;9.40;4.25;;;15.60;99.90;;;;;;5045514;28;20464;-75
2023/08/01 03:47:15;;;;;;;7.40;4.43;;;15.60;99.90;;;;;;5055739;28;20037;-76
2023/08/01 03:49:41;;;;;;;6.05;3.50;;;15.50;99.90;;;;;;5046424;28;20127;-76
2023/08/01 03:52:07;;;;;;;8.80;3.90;;;15.50;99.90;;;;;;5045486;28;20049;-76
2023/08/01 03:54:34;;;;;;;8.30;3.65;;;15.50;99.90;;;;;;5044170;28;20072;-76
2023/08/01 03:56:59;;;;;;;6.80;3.63;;;15.50;99.90;;;;;;5064203;28;20037;-76
2023/08/01 03:59:26;;;;;;;14.65;4.93;;;15.50;99.90;;;;;;5058349;28;20105;-76
2023/08/01 04:01:52;;;;;;;6.57;3.30;;;15.40;99.90;;;;;;5056622;28;20083;-76
2023/08/01 04:04:17;;;;;;;6.30;2.53;;;15.40;99.90;;;;;;5038553;28;20399;-77
2023/08/01 04:06:43;;;;;;;7.18;2.97;;;15.40;99.90;;;;;;5054221;28;20632;-76
2023/08/01 04:09:12;;;;;;;5.85;2.55;;;15.30;99.90;;;;;;5036918;28;20687;-77
2023/08/01 04:11:41;;;;;;;4.97;2.55;;;15.30;99.90;;;;;;5056970;28;20044;-76
2023/08/01 04:14:09;;;;;;;6.72;2.75;;;15.30;99.90;;;;;;5055446;28;20102;-76
2023/08/01 04:16:35;;;;;;;6.32;2.60;;;15.20;99.90;;;;;;5046306;28;20040;-76
2023/08/01 04:19:00;;;;;;;4.72;2.58;;;15.20;99.90;;;;;;5037607;28;20060;-76
2023/08/01 04:21:26;;;;;;;6.15;2.65;;;15.10;99.90;;;;;;5056510;28;20091;-76
2023/08/01 04:23:52;;;;;;;4.95;1.60;;;15.10;99.90;;;;;;5054411;28;20805;-76
2023/08/01 04:26:18;;;;;;;5.50;2.00;;;15.10;99.90;;;;;;5032314;28;20150;-75
2023/08/01 04:28:45;;;;;;;5.53;1.55;;;15.00;99.90;;;;;;5036351;28;20055;-76
2023/08/01 04:31:11;;;;;;;4.05;1.70;;;15.00;99.90;;;;;;5060931;28;20047;-75
2023/08/01 04:33:36;;;;;;;3.65;1.63;;;15.00;99.90;;;;;;5041687;28;20045;-76
2023/08/01 04:36:02;;;;;;;5.53;1.65;;;14.90;99.90;;;;;;5049655;28;20052;-77
2023/08/01 04:38:28;;;;;;;8.27;2.67;;;14.90;99.90;;;;;;5049747;28;20515;-76
2023/08/01 04:40:54;;;;;;;4.00;1.80;;;14.90;99.90;;;;;;5035774;28;20056;-76
2023/08/01 04:43:20;;;;;;;3.40;1.60;;;14.90;99.90;;;;;;5055368;28;20072;-75
2023/08/01 04:45:45;;;;;;;4.40;1.60;;;14.90;99.90;;;;;;5041652;28;20127;-76
2023/08/01 04:48:11;;;;;;;5.40;1.83;;;14.80;99.90;;;;;;5035095;28;20106;-77
2023/08/01 04:50:40;;;;;;;4.70;1.70;;;14.80;99.90;;;;;;5060032;28;20103;-77
2023/08/01 04:53:06;;;;;;;4.85;1.70;;;14.80;99.90;;;;;;5033601;28;20090;-76
2023/08/01 04:55:35;;;;;;;4.95;1.90;;;14.80;99.90;;;;;;5039861;28;20049;-77
2023/08/01 04:58:00;;;;;;;5.82;1.60;;;14.80;99.90;;;;;;5062275;28;20036;-77
2023/08/01 05:00:26;;;;;;;4.68;1.90;;;14.80;99.90;;;;;;5055765;28;20086;-76
2023/08/01 05:02:52;;;;;;;4.47;2.28;;;14.70;99.90;;;;;;5060800;28;20131;-76
2023/08/01 05:05:18;;;;;;;4.22;1.80;;;14.80;99.90;;;;;;5059276;28;20037;-76
2023/08/01 05:07:44;;;;;;;4.38;1.88;;;14.80;99.90;;;;;;5041129;28;20051;-76
2023/08/01 05:10:10;;;;;;;4.95;2.00;;;14.80;99.90;;;;;;5045364;28;20119;-76
2023/08/01 05:12:36;;;;;;;3.45;1.83;;;14.80;99.90;;;;;;5042735;28;20044;-76
2023/08/01 05:15:03;;;;;;;4.03;2.10;;;14.80;99.90;;;;;;5043929;28;20564;-76
2023/08/01 05:17:29;;;;;;;5.18;2.75;;;14.90;99.90;;;;;;5061784;28;20040;-76
2023/08/01 05:19:55;;;;;;;7.43;3.28;;;14.90;99.90;;;;;;5062862;28;20048;-76
2023/08/01 05:22:21;;;;;;;4.72;2.90;;;15.00;99.90;;;;;;5061316;28;20118;-77
2023/08/01 05:24:47;;;;;;;6.20;3.05;;;15.00;99.90;;;;;;5047704;28;20670;-76
2023/08/01 05:27:12;;;;;;;7.15;3.08;;;15.10;99.90;;;;;;5057240;28;20102;-76
2023/08/01 05:29:38;;;;;;;5.85;3.13;;;15.20;99.90;;;;;;5052946;28;20048;-76
2023/08/01 05:32:04;;;;;;;8.82;3.55;;;15.20;99.90;;;;;;5055711;28;20440;-75
2023/08/01 05:34:30;;;;;;;5.03;3.00;;;15.30;99.90;;;;;;5053065;28;20048;-76
2023/08/01 05:36:55;;;;;;;4.95;2.90;;;15.30;99.90;;;;;;5060113;28;20120;-76
2023/08/01 05:39:21;;;;;;;6.32;2.95;;;15.30;99.90;;;;;;5064549;28;20062;-76
2023/08/01 05:41:47;;;;;;;5.75;2.97;;;15.30;99.90;;;;;;5056094;28;20044;-76
2023/08/01 05:44:12;;;;;;;4.82;2.80;;;15.30;99.90;;;;;;5046828;28;20147;-76
2023/08/01 05:46:38;;;;;;;5.57;3.10;;;15.40;99.90;;;;;;5063821;28;20043;-75
2023/08/01 05:49:04;;;;;;;7.03;3.30;;;15.30;99.90;;;;;;5065366;28;20052;-76
2023/08/01 05:51:30;;;;;;;6.90;3.05;;;15.30;99.90;;;;;;5044601;28;20032;-76
2023/08/01 05:53:55;;;;;;;5.07;3.05;;;15.30;99.90;;;;;;5064909;28;20037;-76
2023/08/01 05:56:21;;;;;;;7.47;3.63;;;15.30;99.90;;;;;;5050916;28;20047;-76
2023/08/01 05:58:47;;;;;;;6.95;3.50;;;15.40;99.90;;;;;;5064479;28;20227;-75
2023/08/01 06:01:13;;;;;;;8.23;3.60;;;15.40;99.90;;;;;;5065254;28;20490;-75
2023/08/01 06:03:39;;;;;;;6.93;3.72;;;15.50;99.90;;;;;;5066514;28;20892;-76
2023/08/01 06:06:05;;;;;;;7.22;3.47;;;15.50;99.90;;;;;;5050454;28;20095;-77
2023/08/01 06:08:31;;;;;;;8.43;3.63;;;15.50;99.90;;;;;;5063537;28;20507;-75
2023/08/01 06:10:57;;;;;;;9.07;3.80;;;15.70;99.90;;;;;;5062053;28;20068;-75
2023/08/01 06:13:22;;;;;;;6.07;3.35;;;15.70;99.90;;;;;;5061127;28;20122;-75
2023/08/01 06:15:48;;;;;;;5.97;2.85;;;15.70;99.90;;;;;;5061863;28;20045;-75
2023/08/01 06:18:14;;;;;;;6.70;3.30;;;15.80;99.90;;;;;;5060540;28;20127;-76
2023/08/01 06:20:40;;;;;;;8.80;3.53;;;15.80;99.90;;;;;;5058067;28;20071;-75
2023/08/01 06:23:06;;;;;;;6.53;3.05;;;15.80;99.90;;;;;;5062156;28;20448;-75
2023/08/01 06:25:31;;;;;;;5.53;3.30;;;15.80;99.90;;;;;;5058335;28;20042;-75
2023/08/01 06:27:57;;;;;;;6.45;3.22;;;15.80;99.90;;;;;;5045907;28;20641;-75
2023/08/01 06:30:23;;;;;;;5.43;2.97;;;15.80;99.90;;;;;;5072948;28;20041;-75
2023/08/01 06:32:49;;;;;;;4.80;2.50;;;15.80;99.90;;;;;;5044751;28;20128;-75
2023/08/01 06:35:15;;;;;;;5.38;2.65;;;15.80;99.90;;;;;;5064356;28;20057;-75
2023/08/01 06:37:40;;;;;;;5.40;2.63;;;15.80;99.90;;;;;;5060221;28;20132;-75
2023/08/01 06:40:07;;;;;;;5.03;2.30;;;15.80;99.90;;;;;;5055687;28;20051;-76
2023/08/01 06:42:33;;;;;;;6.13;2.35;;;15.80;99.90;;;;;;5061073;28;20393;-75
2023/08/01 06:44:59;;;;;;;4.53;2.20;;;15.80;99.90;;;;;;5066511;28;20123;-75
2023/08/01 06:47:25;;;;;;;5.43;2.30;;;15.80;99.90;;;;;;5061203;28;20044;-75
2023/08/01 06:49:50;;;;;;;5.15;2.33;;;15.80;99.90;;;;;;5047695;28;20044;-76
2023/08/01 06:52:16;;;;;;;6.53;2.40;;;15.80;99.90;;;;;;5054108;28;20045;-75
2023/08/01 06:54:42;;;;;;;4.18;1.95;;;15.80;99.90;;;;;;5057959;28;20045;-76
2023/08/01 06:57:08;;;;;;;3.97;1.95;;;15.80;99.90;;;;;;5058546;28;20048;-76
2023/08/01 06:59:33;;;;;;;5.10;2.15;;;15.80;99.90;;;;;;5057346;28;20037;-76
2023/08/01 07:02:00;;;;;;;5.55;2.05;;;15.80;99.90;;;;;;5056175;28;20174;-77
2023/08/01 07:04:25;;;;;;;3.78;1.90;;;15.80;99.90;;;;;;5054999;28;20064;-77
2023/08/01 07:06:51;;;;;;;5.78;2.20;;;15.90;99.90;;;;;;5060335;28;20041;-77
2023/08/01 07:09:17;;;;;;;4.38;2.17;;;16.00;99.90;;;;;;5051104;28;20414;-76
2023/08/01 07:11:43;;;;;;;4.45;1.90;;;16.10;99.90;;;;;;5045025;28;20051;-77
2023/08/01 07:14:09;;;;;;;5.07;1.88;;;16.20;99.90;;;;;;5061878;28;20171;-77
2023/08/01 07:16:34;;;;;;;5.50;1.92;;;16.20;99.90;;;;;;5069085;28;20487;-77
2023/08/01 07:19:01;;;;;;;4.90;1.92;;;16.30;99.90;;;;;;5066975;28;20031;-78
2023/08/01 07:21:27;;;;;;;3.78;1.63;;;16.30;99.90;;;;;;5053472;28;20488;-77
2023/08/01 07:23:57;;;;;;;4.68;1.65;;;16.40;99.90;;;;;;5061135;28;20052;-78
2023/08/01 07:26:23;;;;;;;6.28;2.15;;;16.50;99.90;;;;;;5047280;28;20040;-78
2023/08/01 07:28:49;;;;;;;6.45;1.60;;;16.50;99.90;;;;;;5064165;28;20052;-77
2023/08/01 07:31:15;;;;;;;6.05;1.88;;;16.60;99.90;;;;;;5055600;28;20048;-76
2023/08/01 07:33:40;;;;;;;8.80;2.65;;;16.70;99.90;;;;;;5057598;28;20064;-77
2023/08/01 07:36:06;;;;;;;5.57;1.80;;;16.70;99.90;;;;;;5055482;28;20407;-76
2023/08/01 07:38:32;;;;;;;6.15;1.85;;;16.70;99.90;;;;;;5067398;28;20037;-76
2023/08/01 07:41:01;;;;;;;6.47;2.00;;;16.60;99.90;;;;;;5057519;28;20086;-76
2023/08/01 07:43:27;;;;;;;7.53;2.10;;;16.60;99.90;;;;;;5062249;28;20081;-76
2023/08/01 07:45:58;;;;;;;7.53;2.20;;;16.50;99.90;;;;;;5058830;28;20056;-76
2023/08/01 07:48:23;;;;;;;6.00;1.88;;;16.50;99.90;;;;;;5051324;28;20037;-76
2023/08/01 07:50:49;;;;;;;7.75;2.50;;;16.40;99.90;;;;;;5044391;28;20070;-76
2023/08/01 07:53:15;;;;;;;7.30;2.25;;;16.40;99.90;;;;;;5060744;28;20075;-75
2023/08/01 07:55:41;;;;;;;6.25;2.30;;;16.30;99.90;;;;;;5055587;28;20052;-76
2023/08/01 07:58:07;;;;;;;6.70;2.35;;;16.30;99.90;;;;;;5061299;28;20517;-75
2023/08/01 08:00:35;;;;;;;5.65;2.10;;;16.20;99.90;;;;;;5054694;28;20032;-76
2023/08/01 08:03:00;;;;;;;6.18;2.50;;;16.20;99.90;;;;;;5059699;28;20051;-76
2023/08/01 08:05:26;;;;;;;7.72;2.75;;;16.20;99.90;;;;;;5057187;28;20048;-75
2023/08/01 08:07:52;;;;;;;7.35;2.90;;;16.20;99.90;;;;;;5055148;28;20048;-76
2023/08/01 08:10:18;;;;;;;8.48;3.53;;;16.20;99.90;;;;;;5054735;28;20163;-76
2023/08/01 08:12:44;;;;;;;6.35;2.67;;;16.40;99.90;;;;;;5039230;28;20052;-77
2023/08/01 08:15:09;;;;;;;6.38;2.50;;;16.40;99.90;;;;;;5060349;28;20048;-76
2023/08/01 08:17:35;;;;;;;5.75;2.00;;;16.40;99.90;;;;;;5043194;28;20036;-76
2023/08/01 08:20:01;;;;;;;5.82;2.08;;;16.40;99.90;;;;;;5055458;28;20395;-75
2023/08/01 08:22:27;;;;;;;4.13;2.13;;;16.30;99.90;;;;;;5056324;28;20114;-76
2023/08/01 08:24:53;;;;;;;6.07;2.17;;;16.30;99.90;;;;;;5041257;28;20055;-75
2023/08/01 08:27:19;;;;;;;6.15;2.40;;;16.20;99.90;;;;;;5060437;28;20394;-76
2023/08/01 08:29:45;;;;;;;3.65;1.63;;;16.20;99.90;;;;;;5040073;28;20040;-76
2023/08/01 08:32:11;;;;;;;5.95;2.70;;;16.10;99.90;;;;;;5059928;28;20402;-76
2023/08/01 08:34:36;;;;;;;6.78;2.20;;;16.10;99.90;;;;;;5056240;28;20122;-76
2023/08/01 08:37:02;;;;;;;4.68;2.05;;;16.10;99.90;;;;;;5046239;28;20450;-76
2023/08/01 08:39:28;;;;;;;5.40;2.50;;;16.10;99.90;;;;;;5060252;28;20155;-75
2023/08/01 08:41:54;;;;;;;8.10;2.45;;;16.10;99.90;;;;;;5057477;28;20522;-75
2023/08/01 08:44:20;;;;;;;4.88;2.53;;;16.10;99.90;;;;;;5044642;28;20057;-76
2023/08/01 08:46:52;;;;;;;7.40;2.92;;;16.10;99.90;;;;;;5059269;28;20059;-76
2023/08/01 08:49:26;;;;;;;6.47;3.10;;;16.10;99.90;;;;;;5044230;28;20048;-75
2023/08/01 08:51:54;;;;;;;5.45;2.60;;;16.10;99.90;;;;;;5065227;28;20075;-76
2023/08/01 08:54:20;;;;;;;7.38;3.00;;;16.10;99.90;;;;;;5052341;28;20048;-76
2023/08/01 08:56:49;;;;;;;8.43;3.72;;;16.10;99.90;;;;;;5055742;28;20040;-76
2023/08/01 08:59:15;;;;;;;7.95;3.17;;;16.10;99.90;;;;;;5061123;28;20045;-76
2023/08/01 09:01:45;;;;;;;9.18;4.03;;;16.10;99.90;;;;;;5044696;28;20343;-76
2023/08/01 09:04:11;;;;;;;7.15;3.97;;;16.10;99.90;;;;;;5061865;28;20120;-75
2023/08/01 09:06:49;;;;;;;6.10;3.97;;;16.10;99.90;;;;;;5056623;28;20507;-77
2023/08/01 09:09:15;;;;;;;6.70;3.47;;;16.20;99.90;;;;;;5055635;28;20053;-76
2023/08/01 09:11:51;;;;;;;5.38;3.13;;;16.20;99.90;;;;;;5043273;28;20045;-76
2023/08/01 09:14:19;;;;;;;5.25;2.63;;;16.20;99.90;;;;;;5054091;28;20453;-75
2023/08/01 09:16:47;;;;;;;6.10;3.15;;;16.20;99.90;;;;;;5042012;28;20044;-74
2023/08/01 09:19:18;;;;;;;11.50;5.13;;;16.30;99.90;;;;;;5063401;28;20048;-74
2023/08/01 09:21:44;;;;;;;7.82;4.40;;;16.30;99.90;;;;;;5063978;28;20416;-75
2023/08/01 09:24:10;;;;;;;8.20;4.30;;;16.30;99.90;;;;;;5045307;28;20075;-75
2023/08/01 09:26:36;;;;;;;11.30;4.63;;;16.30;99.90;;;;;;5067157;28;20055;-75
2023/08/01 09:29:04;;;;;;;8.88;4.30;;;16.30;99.90;;;;;;5060898;28;20072;-75
2023/08/01 09:31:33;;;;;;;7.68;3.50;;;16.30;99.90;;;;;;5056968;28;20077;-74
2023/08/01 09:33:59;;;;;;;8.63;4.07;;;16.30;99.90;;;;;;5054789;28;20052;-75
2023/08/01 09:36:26;;;;;;;7.80;3.75;;;16.20;99.90;;;;;;5061731;28;20056;-75
2023/08/01 09:38:57;;;;;;;8.93;4.18;;;16.20;99.90;;;;;;5050943;28;20044;-75
2023/08/01 09:41:23;;;;;;;9.40;3.50;;;16.20;99.90;;;;;;5060785;28;20045;-75
2023/08/01 09:43:50;;;;;;;7.03;3.78;;;16.40;99.90;;;;;;5044795;28;20086;-76
2023/08/01 09:46:15;;;;;;;7.65;3.13;;;16.50;99.90;;;;;;5045953;28;20072;-75
2023/08/01 09:48:41;;;;;;;5.85;2.70;;;16.70;99.90;;;;;;5059250;28;20072;-74
2023/08/01 09:51:12;;;;;;;6.35;3.45;;;16.70;99.90;;;;;;5066189;28;20051;-75
2023/08/01 09:53:52;;;;;;;7.65;2.90;;;16.80;99.90;;;;;;5065354;28;20040;-75
2023/08/01 09:56:28;;;;;;;8.30;2.85;;;16.90;99.90;;;;;;5057316;28;20044;-75
2023/08/01 09:58:55;;;;;;;5.35;3.45;;;16.90;99.90;;;;;;5061335;28;20080;-76
2023/08/01 10:01:24;;;;;;;7.75;3.90;;;17.00;99.90;;;;;;5041628;28;20044;-76
2023/08/01 10:03:51;;;;;;;11.95;4.82;;;17.10;99.90;;;;;;5041192;28;20062;-75
2023/08/01 10:06:19;;;;;;;7.78;3.90;;;17.20;99.90;;;;;;5069056;28;20048;-75
2023/08/01 10:08:46;;;;;;;9.30;4.38;;;17.20;99.90;;;;;;5061969;28;20048;-75
2023/08/01 10:11:15;;;;;;;8.02;4.18;;;17.20;99.90;;;;;;5065253;28;20036;-75
2023/08/01 10:13:43;;;;;;;7.80;3.45;;;17.20;99.90;;;;;;5051070;28;20043;-76
2023/08/01 10:16:09;;;;;;;8.80;3.28;;;17.10;99.90;;;;;;5066706;28;20556;-75
2023/08/01 10:18:39;;;;;;;6.85;4.32;;;17.10;99.90;;;;;;5058936;28;20125;-75
2023/08/01 10:21:06;;;;;;;11.32;4.78;;;17.10;99.90;;;;;;5063205;28;20040;-75
2023/08/01 10:23:33;;;;;;;8.80;3.65;;;17.00;99.90;;;;;;5057863;28;20233;-75
2023/08/01 10:26:01;;;;;;;7.32;3.75;;;17.00;99.90;;;;;;5054548;28;20599;-75
2023/08/01 10:28:41;;;;;;;7.07;3.83;;;17.00;99.90;;;;;;5058429;28;20665;-75
2023/08/01 10:31:15;;;;;;;7.57;3.28;;;16.90;99.90;;;;;;5042798;28;20375;-75
2023/08/01 10:33:42;;;;;;;9.13;3.90;;;17.00;99.90;;;;;;5045581;28;20045;-75
2023/08/01 10:36:24;;;;;;;8.43;3.65;;;17.00;99.90;;;;;;5044941;28;20113;-75
2023/08/01 10:38:51;;;;;;;6.72;2.90;;;17.00;99.90;;;;;;5055773;28;20072;-74
2023/08/01 10:41:27;;;;;;;16.58;6.40;;;17.00;99.90;;;;;;5043754;28;20045;-75
2023/08/01 10:44:13;;;;;;;8.60;3.28;;;16.90;99.90;;;;;;5043014;28;20181;-76
2023/08/01 10:46:49;;;;;;;8.05;3.20;;;16.90;99.90;;;;;;5061551;28;20222;-75
2023/08/01 10:49:16;;;;;;;9.38;4.20;;;16.90;99.90;;;;;;5043705;28;20044;-75
2023/08/01 10:51:43;;;;;;;7.72;3.05;;;16.90;99.90;;;;;;5058118;28;20052;-75
2023/08/01 10:54:22;;;;;;;6.47;2.67;;;17.00;99.90;;;;;;5067744;28;20044;-75
2023/08/01 10:56:50;;;;;;;9.25;4.80;;;17.10;99.90;;;;;;5043066;28;20045;-75
2023/08/01 10:59:16;;;;;;;12.70;5.18;;;17.40;99.90;;;;;;5066089;28;20508;-75
2023/08/01 11:01:50;;;;;;;10.57;5.72;;;17.80;99.90;;;;;;5057434;28;20072;-75
2023/08/01 11:04:21;;;;;;;11.80;5.15;;;18.20;99.90;;;;;;5039884;28;20044;-75
2023/08/01 11:06:52;;;;;;;10.85;4.03;;;18.50;99.90;;;;;;5058691;28;20049;-75
2023/08/01 11:09:20;;;;;;;7.82;4.03;;;18.70;99.90;;;;;;5064734;28;20436;-75
2023/08/01 11:11:49;;;;;;;9.02;3.50;;;18.90;99.90;;;;;;5062063;28;20206;-75
2023/08/01 11:14:15;;;;;;;12.63;5.10;;;19.10;99.90;;;;;;5060933;28;20047;-75
2023/08/01 11:16:43;;;;;;;10.13;4.35;;;19.30;99.90;;;;;;5039675;28;20043;-76
2023/08/01 11:19:29;;;;;;;9.43;3.15;;;19.50;99.90;;;;;;5052444;28;20101;-76
2023/08/01 11:21:56;;;;;;;9.23;2.65;;;19.40;99.90;;;;;;5071922;28;20040;-76
2023/08/01 11:24:24;;;;;;;6.57;2.00;;;19.40;99.90;;;;;;5061746;28;20048;-77
2023/08/01 11:26:51;;;;;;;7.60;2.40;;;19.60;99.90;;;;;;5060309;28;20036;-76
2023/08/01 11:29:19;;;;;;;7.70;1.88;;;19.70;99.90;;;;;;5059072;28;20048;-76
2023/08/01 11:31:59;;;;;;;8.80;2.58;;;19.60;99.90;;;;;;5058555;28;20491;-76
2023/08/01 11:34:25;;;;;;;6.82;2.08;;;19.60;99.90;;;;;;5064798;28;20044;-77
2023/08/01 11:36:52;;;;;;;7.55;2.50;;;19.50;99.90;;;;;;5037952;28;20048;-76
2023/08/01 11:39:18;;;;;;;10.38;2.30;;;19.30;99.90;;;;;;5061090;28;20073;-76
2023/08/01 11:41:45;;;;;;;8.88;2.08;;;19.10;99.90;;;;;;5043712;28;20560;-77
2023/08/01 11:44:11;;;;;;;7.65;1.67;;;18.90;99.90;;;;;;5068362;28;20456;-77
2023/08/01 11:46:38;;;;;;;6.78;1.80;;;18.70;99.90;;;;;;5060890;28;20129;-78
2023/08/01 11:49:06;;;;;;;8.38;3.17;;;18.70;99.90;;;;;;5060725;28;20159;-77
2023/08/01 11:51:43;;;;;;;8.18;2.53;;;18.90;99.90;;;;;;5055991;28;20063;-75
2023/08/01 11:54:11;;;;;;;6.47;2.20;;;19.10;99.90;;;;;;5060452;28;20044;-77
2023/08/01 11:56:41;;;;;;;9.52;2.22;;;19.10;99.90;;;;;;5053407;28;20507;-78
2023/08/01 11:59:13;;;;;;;7.38;2.10;;;19.00;99.90;;;;;;5064232;28;20097;-77
2023/08/01 12:01:46;;;;;;;8.15;2.22;;;18.80;99.90;;;;;;5043194;28;20032;-77
2023/08/01 12:04:23;;;;;;;8.75;2.70;;;18.60;99.90;;;;;;5050113;28;20093;-76
2023/08/01 12:06:49;;;;;;;4.97;1.73;;;18.30;99.90;;;;;;5040771;28;20072;-76
2023/08/01 12:09:15;;;;;;;7.32;1.88;;;18.20;99.90;;;;;;5059702;28;20487;-76
2023/08/01 12:11:41;;;;;;;6.05;1.85;;;18.20;99.90;;;;;;5058112;28;20063;-76
2023/08/01 12:14:09;;;;;;;6.07;1.75;;;18.30;99.90;;;;;;5047810;28;20051;-76
2023/08/01 12:16:36;;;;;;;7.22;2.00;;;18.40;99.90;;;;;;5042118;28;20115;-76
2023/08/01 12:19:03;;;;;;;7.65;2.45;;;18.50;99.90;;;;;;5060264;28;20502;-77
2023/08/01 12:21:29;;;;;;;7.53;2.47;;;18.80;99.90;;;;;;5047335;28;20093;-77
2023/08/01 12:23:55;;;;;;;8.32;2.78;;;19.00;99.90;;;;;;5058058;28;20041;-77
2023/08/01 12:26:22;;;;;;;10.00;2.47;;;19.10;99.90;;;;;;5044414;28;20040;-77
2023/08/01 12:28:48;;;;;;;8.52;2.50;;;19.30;99.90;;;;;;5056635;28;20127;-77
2023/08/01 12:31:21;;;;;;;6.75;2.60;;;19.40;99.90;;;;;;5061466;28;20139;-78
2023/08/01 12:33:52;;;;;;;10.07;2.17;;;19.50;99.90;;;;;;5056548;28;20044;-77
2023/08/01 12:36:18;;;;;;;11.43;3.33;;;19.50;99.90;;;;;;5058035;28;20062;-76
2023/08/01 12:38:43;;;;;;;7.35;2.25;;;19.40;99.90;;;;;;5040665;28;20045;-76
2023/08/01 12:41:09;;;;;;;8.30;2.60;;;19.20;99.90;;;;;;5052485;28;20407;-75